Lintong, China
Current Conditions -  °F | °C
As of 4:00 PM on Saturday 25 Oct 2014 (Local Time) from ZLXY Reporting Station
Haze Haze  
Wind Chill: 77°   Ceiling: Unl
Heat Index: 78°   Visibility: 3mi
Dew Point: 52°   Wind: 4mph
Humidity: 41%   Direction: 120°ESE
Pressure: 29.91"   Gusts: NA
Location:  34.37°N, 109.2°E
Report Text: ZLXY 250800Z 12002MPS 060V170 5000 HZ NSC 25/11 Q1013 NOSIG
Loading
Personal Weather Stations






























Interactive Weather Map
Tropical Storm Tracking
New forecast layout! Learn more

10-Day Weather Forecast

Advertisements
Track Severe Weather on mobile